Terminal Aerodrome Forecast
Issued by NWS

Home | Current Version | Previous Version | Text Only | Print | Product List | Glossary On
Versions: 1 2 3 4 5 6 7 8 9 10 11 12 13 14 15 16 17
000
FTUS41 KBOX 021120
TAFFMH
TAF
KFMH 021120Z 0212/0312 05007KT 2SM -DZ BR OVC003
     FM021700 05004KT P6SM VCSH OVC003
     FM022000 17004KT 3SM BR OVC003
     FM022200 21005KT 1SM BR OVC002
     FM030200 VRB03KT 1/2SM FG OVC002
     FM031100 VRB03KT 2SM -RA BR OVC002=

USA.gov is the U.S. government's official web portal to all federal, state and local government web resources and services.